Abbeville, Louisiana
Current Conditions -  °F | °C
As of 6:15 AM on Sunday 23 Nov 2014 (Local Time) from KIYA Reporting Station
Light Rain Light Rain  
Wind Chill: 61°   Ceiling: 11000
Heat Index: 61°   Visibility: 10mi
Dew Point: 61°   Wind: 9mph
Humidity: 98%   Direction: 210°SSW
Pressure: 29.68"   Gusts: NA
Location:  29.97°N, 92.13°W
Report Text: KIYA 231215Z AUTO 21008KT 10SM -RA OVC110 16/16 A2968 RMK AO2 T01620159
Loading
Personal Weather Stations






























Interactive Weather Map New forecast layout! Learn more

10-Day Weather Forecast

Advertisements
Track Severe Weather on mobile